Observation data for Morton on 08/14/2019      Previous  Date  Next       Current Mesonet Observations  Soil Data  Daily Summary Page  Observations in Plain Language
KMNS 140500Z 07009KT 25/15 A3016 RMK A01 T02500152  RH  057%=      5-min Rain = 0
KMNS 140505Z 07009KT 25/15 A3016 RMK A01 T02500153  RH  057%=      5-min Rain = 0
KMNS 140510Z 08008KT 25/15 A3016 RMK A01 T02490153  RH  058%=      5-min Rain = 0
KMNS 140515Z 07008KT 25/15 A3016 RMK A01 T02480153  RH  058%=      5-min Rain = 0
KMNS 140520Z 08008KT 25/15 A3016 RMK A01 T02460153  RH  059%=      5-min Rain = 0
KMNS 140525Z 08008KT 25/15 A3016 RMK A01 T02450153  RH  059%=      5-min Rain = 0
KMNS 140530Z 09007KT 24/15 A3016 RMK A01 T02430152  RH  059%=      5-min Rain = 0
KMNS 140535Z 10007KT 24/15 A3015 RMK A01 T02420153  RH  060%=      5-min Rain = 0
KMNS 140540Z 10007KT 24/15 A3015 RMK A01 T02430154  RH  060%=      5-min Rain = 0
KMNS 140545Z 10007KT 24/16 A3016 RMK A01 T02420155  RH  061%=      5-min Rain = 0
KMNS 140550Z 10006KT 24/16 A3016 RMK A01 T02400155  RH  062%=      5-min Rain = 0
KMNS 140555Z 10006KT 24/16 A3016 RMK A01 T02380156  RH  063%=      5-min Rain = 0
KMNS 140600Z 11006KT 24/16 A3016 RMK A01 T02360157  RH  064%=      5-min Rain = 0
KMNS 140605Z 11006KT 23/16 A3016 RMK A01 T02340157  RH  065%=      5-min Rain = 0
KMNS 140610Z 11006KT 23/16 A3016 RMK A01 T02330157  RH  065%=      5-min Rain = 0
KMNS 140615Z 11005KT 23/16 A3016 RMK A01 T02310158  RH  066%=      5-min Rain = 0
KMNS 140620Z 10005KT 23/16 A3016 RMK A01 T02300158  RH  067%=      5-min Rain = 0
KMNS 140625Z 08005KT 23/16 A3016 RMK A01 T02290159  RH  068%=      5-min Rain = 0
KMNS 140630Z 07005KT 23/16 A3016 RMK A01 T02270159  RH  069%=      5-min Rain = 0
KMNS 140635Z 07005KT 22/16 A3016 RMK A01 T02230159  RH  070%=      5-min Rain = 0
KMNS 140640Z 07005KT 22/16 A3016 RMK A01 T02220159  RH  071%=      5-min Rain = 0
KMNS 140645Z 07005KT 22/16 A3017 RMK A01 T02210159  RH  071%=      5-min Rain = 0
KMNS 140650Z 08006KT 22/16 A3017 RMK A01 T02190159  RH  072%=      5-min Rain = 0
KMNS 140655Z 09005KT 22/16 A3017 RMK A01 T02180159  RH  072%=      5-min Rain = 0
KMNS 140700Z 09005KT 22/16 A3017 RMK A01 T02180159  RH  072%=      5-min Rain = 0
KMNS 140705Z 09005KT 22/16 A3017 RMK A01 T02180159  RH  073%=      5-min Rain = 0
KMNS 140710Z 07006KT 22/16 A3017 RMK A01 T02180159  RH  072%=      5-min Rain = 0
KMNS 140715Z 06007KT 22/16 A3017 RMK A01 T02150159  RH  074%=      5-min Rain = 0
KMNS 140720Z 06006KT 21/16 A3018 RMK A01 T02140159  RH  074%=      5-min Rain = 0
KMNS 140725Z 05007KT 22/16 A3018 RMK A01 T02150159  RH  074%=      5-min Rain = 0
KMNS 140730Z 07005KT 22/16 A3018 RMK A01 T02160160  RH  074%=      5-min Rain = 0
KMNS 140735Z 06006KT 22/16 A3018 RMK A01 T02170160  RH  074%=      5-min Rain = 0
KMNS 140740Z 06005KT 22/16 A3017 RMK A01 T02160159  RH  074%=      5-min Rain = 0
KMNS 140745Z 05006KT 22/16 A3017 RMK A01 T02150159  RH  074%=      5-min Rain = 0
KMNS 140750Z 06007KT 22/16 A3018 RMK A01 T02150160  RH  074%=      5-min Rain = 0
KMNS 140755Z 07006KT 22/16 A3018 RMK A01 T02150161  RH  074%=      5-min Rain = 0
KMNS 140800Z 07006KT 22/16 A3018 RMK A01 T02150161  RH  075%=      5-min Rain = 0
KMNS 140805Z 06007KT 22/16 A3018 RMK A01 T02150162  RH  075%=      5-min Rain = 0
KMNS 140810Z 07007KT 22/16 A3018 RMK A01 T02150162  RH  075%=      5-min Rain = 0
KMNS 140815Z 08007KT 22/16 A3018 RMK A01 T02150163  RH  076%=      5-min Rain = 0
KMNS 140820Z 08006KT 22/16 A3018 RMK A01 T02150163  RH  076%=      5-min Rain = 0
KMNS 140825Z 08006KT 22/16 A3018 RMK A01 T02150164  RH  076%=      5-min Rain = 0
KMNS 140830Z 07007KT 21/17 A3018 RMK A01 T02140165  RH  077%=      5-min Rain = 0
KMNS 140835Z 07006KT 22/17 A3018 RMK A01 T02150165  RH  077%=      5-min Rain = 0
KMNS 140840Z 07007KT 22/17 A3018 RMK A01 T02150165  RH  077%=      5-min Rain = 0
KMNS 140845Z 08007KT 22/17 A3018 RMK A01 T02170166  RH  076%=      5-min Rain = 0
KMNS 140850Z 08008KT 22/17 A3017 RMK A01 T02180166  RH  076%=      5-min Rain = 0
KMNS 140855Z 07008KT 22/17 A3017 RMK A01 T02170166  RH  076%=      5-min Rain = 0
KMNS 140900Z 07007KT 22/17 A3018 RMK A01 T02170166  RH  077%=      5-min Rain = 0
KMNS 140905Z 07006KT 22/17 A3018 RMK A01 T02160166  RH  077%=      5-min Rain = 0
KMNS 140910Z 07006KT 21/17 A3018 RMK A01 T02140165  RH  078%=      5-min Rain = 0
KMNS 140915Z 08005KT 21/17 A3017 RMK A01 T02120165  RH  078%=      5-min Rain = 0
KMNS 140920Z 08004KT 21/17 A3017 RMK A01 T02100165  RH  079%=      5-min Rain = 0
KMNS 140925Z 07005KT 21/17 A3017 RMK A01 T02100165  RH  079%=      5-min Rain = 0
KMNS 140930Z 06006KT 21/17 A3017 RMK A01 T02090165  RH  080%=      5-min Rain = 0
KMNS 140935Z 06006KT 21/17 A3017 RMK A01 T02090165  RH  080%=      5-min Rain = 0
KMNS 140940Z 06006KT 21/17 A3017 RMK A01 T02080165  RH  080%=      5-min Rain = 0
KMNS 140945Z 06006KT 21/17 A3017 RMK A01 T02080166  RH  080%=      5-min Rain = 0
KMNS 140950Z 05006KT 21/17 A3018 RMK A01 T02080166  RH  080%=      5-min Rain = 0
KMNS 140955Z 05007KT 21/17 A3018 RMK A01 T02090166  RH  080%=      5-min Rain = 0
KMNS 141000Z 05006KT 21/17 A3018 RMK A01 T02080166  RH  080%=      5-min Rain = 0
KMNS 141005Z 06007KT 21/17 A3018 RMK A01 T02080166  RH  081%=      5-min Rain = 0
KMNS 141010Z 05007KT 21/17 A3018 RMK A01 T02080166  RH  081%=      5-min Rain = 0
KMNS 141015Z 06007KT 21/17 A3018 RMK A01 T02080167  RH  081%=      5-min Rain = 0
KMNS 141020Z 06007KT 21/17 A3018 RMK A01 T02070167  RH  081%=      5-min Rain = 0
KMNS 141025Z 06007KT 21/17 A3019 RMK A01 T02070167  RH  082%=      5-min Rain = 0
KMNS 141030Z 06007KT 21/17 A3019 RMK A01 T02070167  RH  082%=      5-min Rain = 0
KMNS 141035Z 05007KT 21/17 A3019 RMK A01 T02070167  RH  082%=      5-min Rain = 0
KMNS 141040Z 05007KT 21/17 A3019 RMK A01 T02070168  RH  082%=      5-min Rain = 0
KMNS 141045Z 05007KT 21/17 A3019 RMK A01 T02070168  RH  082%=      5-min Rain = 0
KMNS 141050Z 04007KT 21/17 A302 RMK A01 T02080168  RH  082%=      5-min Rain = 0
KMNS 141055Z 04007KT 21/17 A302 RMK A01 T02090169  RH  082%=      5-min Rain = 0
KMNS 141100Z 04009KT 21/17 A302 RMK A01 T02100169  RH  081%=      5-min Rain = 0
KMNS 141105Z 04011KT 21/17 A302 RMK A01 T02110170  RH  082%=      5-min Rain = 0
KMNS 141110Z 05010G15KT 21/17 A302 RMK A01 T02120171  RH  081%=      5-min Rain = 0
KMNS 141115Z 05010KT 21/17 A3021 RMK A01 T02130171  RH  081%=      5-min Rain = 0
KMNS 141120Z 05011KT 21/17 A3021 RMK A01 T02130171  RH  081%=      5-min Rain = 0
KMNS 141125Z 05012G18KT 21/17 A3021 RMK A01 T02140171  RH  080%=      5-min Rain = 0
KMNS 141130Z 05014G19KT 21/17 A3021 RMK A01 T02140170  RH  080%=      5-min Rain = 0
KMNS 141135Z 05013G18KT 21/17 A3021 RMK A01 T02130168  RH  079%=      5-min Rain = 0
KMNS 141140Z 05015KT 21/17 A3022 RMK A01 T02120167  RH  079%=      5-min Rain = 0
KMNS 141145Z 04014KT 21/16 A3022 RMK A01 T02100164  RH  079%=      5-min Rain = 0
KMNS 141150Z 04015G21KT 21/16 A3022 RMK A01 T02090160  RH  077%=      5-min Rain = 0
KMNS 141155Z 05014G20KT 21/16 A3022 RMK A01 T02080156  RH  075%=      5-min Rain = 0
KMNS 141200Z 04014G20KT 21/15 A3023 RMK A01 T02080154  RH  074%=      5-min Rain = 0
KMNS 141205Z 04013KT 21/16 A3023 RMK A01 T02080155  RH  075%=      5-min Rain = 0
KMNS 141210Z 04015G21KT 21/16 A3023 RMK A01 T02070155  RH  076%=      5-min Rain = 0
KMNS 141215Z 04013G19KT 21/15 A3023 RMK A01 T02050152  RH  075%=      5-min Rain = 0
KMNS 141220Z 04014G20KT 20/15 A3024 RMK A01 T02030146  RH  073%=      5-min Rain = 0
KMNS 141225Z 05014KT 20/14 A3024 RMK A01 T02010139  RH  070%=      5-min Rain = 0
KMNS 141230Z 05015G20KT 20/14 A3024 RMK A01 T02010136  RH  069%=      5-min Rain = 0
KMNS 141235Z 05013G18KT 20/14 A3025 RMK A01 T02010136  RH  069%=      5-min Rain = 0
KMNS 141240Z 05012G17KT 20/14 A3025 RMK A01 T02000135  RH  069%=      5-min Rain = 0
KMNS 141245Z 05013G18KT 20/13 A3025 RMK A01 T02000133  RH  068%=      5-min Rain = 0
KMNS 141250Z 06012G18KT 20/13 A3026 RMK A01 T02010133  RH  068%=      5-min Rain = 0
KMNS 141255Z 06012G17KT 20/13 A3026 RMK A01 T02010132  RH  067%=      5-min Rain = 0
KMNS 141300Z 06013KT 20/13 A3026 RMK A01 T02020133  RH  067%=      5-min Rain = 0
KMNS 141305Z 06013G18KT 20/13 A3026 RMK A01 T02020132  RH  067%=      5-min Rain = 0
KMNS 141310Z 06012KT 20/13 A3027 RMK A01 T02010133  RH  067%=      5-min Rain = 0
KMNS 141315Z 05012G17KT 20/13 A3027 RMK A01 T02020133  RH  067%=      5-min Rain = 0
KMNS 141320Z 05011G16KT 20/13 A3027 RMK A01 T02020133  RH  067%=      5-min Rain = 0
KMNS 141325Z 05012KT 20/13 A3027 RMK A01 T02030134  RH  067%=      5-min Rain = 0
KMNS 141330Z 05010KT 21/14 A3028 RMK A01 T02050135  RH  067%=      5-min Rain = 0
KMNS 141335Z 05012G18KT 21/14 A3028 RMK A01 T02070135  RH  066%=      5-min Rain = 0
KMNS 141340Z 04010G17KT 21/14 A3029 RMK A01 T02100137  RH  065%=      5-min Rain = 0
KMNS 141345Z 04013G18KT 22/14 A3029 RMK A01 T02160137  RH  064%=      5-min Rain = 0
KMNS 141350Z 05013KT 22/14 A3029 RMK A01 T02160137  RH  063%=      5-min Rain = 0
KMNS 141355Z 05011KT 22/14 A3029 RMK A01 T02180137  RH  063%=      5-min Rain = 0
KMNS 141400Z 05010KT 22/14 A3029 RMK A01 T02200138  RH  062%=      5-min Rain = 0
KMNS 141405Z 04012KT 22/14 A3029 RMK A01 T02190139  RH  063%=      5-min Rain = 0
KMNS 141410Z 04012KT 22/14 A303 RMK A01 T02180139  RH  064%=      5-min Rain = 0
KMNS 141415Z 03016KT 22/14 A303 RMK A01 T02160138  RH  063%=      5-min Rain = 0
KMNS 141420Z 02016G22KT 21/13 A303 RMK A01 T02140134  RH  063%=      5-min Rain = 0
KMNS 141425Z 03011G17KT 21/13 A303 RMK A01 T02130134  RH  063%=      5-min Rain = 0
KMNS 141430Z 04012G18KT 22/13 A3029 RMK A01 T02160134  RH  062%=      5-min Rain = 0
KMNS 141435Z 03014KT 22/13 A303 RMK A01 T02160133  RH  062%=      5-min Rain = 0
KMNS 141440Z 03013G18KT 22/13 A303 RMK A01 T02160134  RH  062%=      5-min Rain = 0
KMNS 141445Z 02014KT 22/14 A3031 RMK A01 T02180135  RH  061%=      5-min Rain = 0
KMNS 141450Z 01016KT 22/14 A3031 RMK A01 T02210135  RH  060%=      5-min Rain = 0
KMNS 141455Z 01015KT 22/14 A3031 RMK A01 T02210135  RH  060%=      5-min Rain = 0
KMNS 141500Z 02014KT 22/13 A3031 RMK A01 T02200134  RH  060%=      5-min Rain = 0
KMNS 141505Z 01012KT 22/14 A3031 RMK A01 T02220135  RH  060%=      5-min Rain = 0
KMNS 141510Z 01011KT 22/13 A303 RMK A01 T02210134  RH  060%=      5-min Rain = 0
KMNS 141515Z 02011KT 22/13 A303 RMK A01 T02200133  RH  060%=      5-min Rain = 0
KMNS 141520Z 02009KT 22/13 A303 RMK A01 T02210134  RH  060%=      5-min Rain = 0
KMNS 141525Z 02006KT 22/13 A303 RMK A01 T02220133  RH  059%=      5-min Rain = 0
KMNS 141530Z 03003KT 22/13 A303 RMK A01 T02240134  RH  059%=      5-min Rain = 0
KMNS 141535Z 08002KT 23/13 A3029 RMK A01 T02260133  RH  058%=      5-min Rain = 0
KMNS 141540Z 11003KT 23/13 A3028 RMK A01 T02280132  RH  057%=      5-min Rain = 0
KMNS 141545Z 11004KT 23/13 A3027 RMK A01 T02310133  RH  056%=      5-min Rain = 0
KMNS 141550Z 11005KT 23/13 A3027 RMK A01 T02340134  RH  056%=      5-min Rain = 0
KMNS 141555Z 11004KT 24/13 A3026 RMK A01 T02350133  RH  055%=      5-min Rain = 0
KMNS 141600Z 13006KT 24/13 A3025 RMK A01 T02390134  RH  054%=      5-min Rain = 0
KMNS 141605Z 13006KT 24/14 A3025 RMK A01 T02440136  RH  053%=      5-min Rain = 0
KMNS 141610Z 12010KT 25/13 A3024 RMK A01 T02520134  RH  050%=      5-min Rain = 0
KMNS 141615Z 12010KT 25/13 A3023 RMK A01 T02510134  RH  050%=      5-min Rain = 0
KMNS 141620Z 11010KT 25/13 A3023 RMK A01 T02510131  RH  049%=      5-min Rain = 0
KMNS 141625Z 12008KT 25/13 A3023 RMK A01 T02530133  RH  049%=      5-min Rain = 0
KMNS 141630Z 12010KT 26/13 A3022 RMK A01 T02590133  RH  047%=      5-min Rain = 0
KMNS 141635Z 10010KT 26/13 A3023 RMK A01 T02600133  RH  047%=      5-min Rain = 0
KMNS 141640Z 10007KT 27/13 A3024 RMK A01 T02650132  RH  045%=      5-min Rain = 0
KMNS 141645Z 10009KT 27/13 A3024 RMK A01 T02690129  RH  044%=      5-min Rain = 0
KMNS 141650Z 10012KT 27/13 A3022 RMK A01 T02730125  RH  042%=      5-min Rain = 0
KMNS 141655Z 09008G14KT 28/12 A3023 RMK A01 T02750124  RH  041%=      5-min Rain = 0
KMNS 141700Z 09007KT 29/12 A3024 RMK A01 T02870123  RH  038%=      5-min Rain = 0
KMNS 141705Z 09007KT 29/12 A3024 RMK A01 T02880120  RH  037%=      5-min Rain = 0
KMNS 141710Z 10009KT 30/12 A3023 RMK A01 T02970120  RH  035%=      5-min Rain = 0
KMNS 141715Z 10010G17KT 30/11 A3022 RMK A01 T02980113  RH  033%=      5-min Rain = 0
KMNS 141720Z 10009KT 29/12 A3022 RMK A01 T02940115  RH  034%=      5-min Rain = 0
KMNS 141725Z 10008KT 30/12 A3023 RMK A01 T03000120  RH  034%=      5-min Rain = 0
KMNS 141730Z 10009KT 30/12 A3023 RMK A01 T03040118  RH  033%=      5-min Rain = 0
KMNS 141735Z 10009KT 31/11 A3023 RMK A01 T03050113  RH  032%=      5-min Rain = 0
KMNS 141740Z 09011KT 31/11 A3023 RMK A01 T03100110  RH  030%=      5-min Rain = 0
KMNS 141745Z 08010KT 31/11 A3023 RMK A01 T03080111  RH  031%=      5-min Rain = 0
KMNS 141750Z 10010KT 31/11 A3023 RMK A01 T03090111  RH  031%=      5-min Rain = 0
KMNS 141755Z 09011KT 32/11 A3023 RMK A01 T03170106  RH  028%=      5-min Rain = 0
KMNS 141800Z 09010G15KT 32/11 A3023 RMK A01 T03170110  RH  029%=      5-min Rain = 0
KMNS 141805Z 09010KT 32/11 A3023 RMK A01 T03150111  RH  030%=      5-min Rain = 0
KMNS 141810Z 10010KT 32/11 A3023 RMK A01 T03240113  RH  028%=      5-min Rain = 0
KMNS 141815Z 08011KT 33/11 A3023 RMK A01 T03280107  RH  027%=      5-min Rain = 0
KMNS 141820Z 07010G15KT 32/11 A3023 RMK A01 T03230109  RH  028%=      5-min Rain = 0
KMNS 141825Z 06010G15KT 33/10 A3023 RMK A01 T03250104  RH  027%=      5-min Rain = 0
KMNS 141830Z 07009KT 33/11 A3023 RMK A01 T03260106  RH  027%=      5-min Rain = 0
KMNS 141835Z 06008G15KT 33/11 A3023 RMK A01 T03260106  RH  027%=      5-min Rain = 0
KMNS 141840Z 06010G15KT 33/11 A3022 RMK A01 T03260110  RH  028%=      5-min Rain = 0
KMNS 141845Z 04010G18KT 33/11 A3022 RMK A01 T03300107  RH  027%=      5-min Rain = 0
KMNS 141850Z 06010G15KT 33/10 A3022 RMK A01 T03310103  RH  026%=      5-min Rain = 0
KMNS 141855Z 06010KT 33/10 A3022 RMK A01 T03300098  RH  025%=      5-min Rain = 0
KMNS 141900Z 08010KT 33/09 A3022 RMK A01 T03310091  RH  024%=      5-min Rain = 0
KMNS 141905Z 06010G16KT 33/09 A3022 RMK A01 T03300092  RH  024%=      5-min Rain = 0
KMNS 141910Z 06006G12KT 33/09 A3022 RMK A01 T03300092  RH  024%=      5-min Rain = 0
KMNS 141915Z 06007G12KT 33/09 A3022 RMK A01 T03340094  RH  024%=      5-min Rain = 0
KMNS 141920Z 04011G16KT 33/10 A3021 RMK A01 T03330097  RH  024%=      5-min Rain = 0
KMNS 141925Z 03009G15KT 33/09 A3022 RMK A01 T03290088  RH  023%=      5-min Rain = 0
KMNS 141930Z 03005G10KT 33/09 A3021 RMK A01 T03290085  RH  023%=      5-min Rain = 0
KMNS 141935Z 06008G14KT 34/08 A3021 RMK A01 T03360084  RH  022%=      5-min Rain = 0
KMNS 141940Z 05011G17KT 33/08 A3021 RMK A01 T03320080  RH  022%=      5-min Rain = 0
KMNS 141945Z 05011G17KT 33/08 A3021 RMK A01 T03330077  RH  021%=      5-min Rain = 0
KMNS 141950Z 05006KT 33/07 A3021 RMK A01 T03330071  RH  020%=      5-min Rain = 0
KMNS 141955Z 05006G15KT 34/08 A3021 RMK A01 T03370079  RH  021%=      5-min Rain = 0
KMNS 142000Z 06010G16KT 34/08 A302 RMK A01 T03380081  RH  021%=      5-min Rain = 0
KMNS 142005Z 05008KT 34/08 A302 RMK A01 T03350081  RH  021%=      5-min Rain = 0
KMNS 142010Z 05008G14KT 33/08 A302 RMK A01 T03320081  RH  022%=      5-min Rain = 0
KMNS 142015Z 06007G12KT 33/09 A302 RMK A01 T03320087  RH  023%=      5-min Rain = 0
KMNS 142020Z 05011G17KT 33/09 A3019 RMK A01 T03340093  RH  024%=      5-min Rain = 0
KMNS 142025Z 03013G18KT 33/10 A3019 RMK A01 T03290096  RH  025%=      5-min Rain = 0
KMNS 142030Z 03012G17KT 33/09 A3019 RMK A01 T03300091  RH  024%=      5-min Rain = 0
KMNS 142035Z 05009G14KT 33/09 A3018 RMK A01 T03320093  RH  024%=      5-min Rain = 0
KMNS 142040Z 05006KT 34/09 A3018 RMK A01 T03370090  RH  023%=      5-min Rain = 0
KMNS 142045Z 03007KT 34/09 A3018 RMK A01 T03350091  RH  023%=      5-min Rain = 0
KMNS 142050Z 08009KT 33/09 A3017 RMK A01 T03330088  RH  023%=      5-min Rain = 0
KMNS 142055Z 11008KT 33/08 A3017 RMK A01 T03340084  RH  022%=      5-min Rain = 0
KMNS 142100Z 11007KT 33/08 A3016 RMK A01 T03310083  RH  022%=      5-min Rain = 0
KMNS 142105Z 11005KT 34/08 A3016 RMK A01 T03370084  RH  022%=      5-min Rain = 0
KMNS 142110Z 04006KT 34/09 A3016 RMK A01 T03370086  RH  022%=      5-min Rain = 0
KMNS 142115Z 34004KT 33/08 A3015 RMK A01 T03310082  RH  022%=      5-min Rain = 0
KMNS 142120Z 09004KT 33/08 A3015 RMK A01 T03310083  RH  022%=      5-min Rain = 0
KMNS 142125Z 04004KT 33/09 A3015 RMK A01 T03320087  RH  023%=      5-min Rain = 0
KMNS 142130Z 02004KT 34/08 A3015 RMK A01 T03390084  RH  021%=      5-min Rain = 0
KMNS 142135Z 08004KT 34/08 A3015 RMK A01 T03370083  RH  022%=      5-min Rain = 0
KMNS 142140Z 10002G8KT 34/09 A3014 RMK A01 T03360085  RH  022%=      5-min Rain = 0
KMNS 142145Z 10006KT 34/09 A3014 RMK A01 T03380085  RH  022%=      5-min Rain = 0
KMNS 142150Z 11006KT 34/09 A3014 RMK A01 T03390085  RH  022%=      5-min Rain = 0
KMNS 142155Z 08005KT 34/09 A3014 RMK A01 T03380085  RH  022%=      5-min Rain = 0
KMNS 142200Z 13007KT 34/08 A3014 RMK A01 T03380083  RH  021%=      5-min Rain = 0
KMNS 142205Z 15005KT 34/08 A3014 RMK A01 T03380083  RH  021%=      5-min Rain = 0
KMNS 142210Z 16005KT 34/08 A3013 RMK A01 T03390081  RH  021%=      5-min Rain = 0
KMNS 142215Z 12007G14KT 34/09 A3013 RMK A01 T03380087  RH  022%=      5-min Rain = 0
KMNS 142220Z 09005KT 34/08 A3013 RMK A01 T03420082  RH  021%=      5-min Rain = 0
KMNS 142225Z 07004KT 34/08 A3013 RMK A01 T03390083  RH  021%=      5-min Rain = 0
KMNS 142230Z 13005KT 34/09 A3013 RMK A01 T03410092  RH  022%=      5-min Rain = 0
KMNS 142235Z 15006KT 34/09 A3013 RMK A01 T03390091  RH  022%=      5-min Rain = 0
KMNS 142240Z 11008KT 34/09 A3013 RMK A01 T03390089  RH  022%=      5-min Rain = 0
KMNS 142245Z 10006KT 33/09 A3012 RMK A01 T03340087  RH  022%=      5-min Rain = 0
KMNS 142250Z 14003KT 34/09 A3013 RMK A01 T03370087  RH  022%=      5-min Rain = 0
KMNS 142255Z 15004KT 34/09 A3012 RMK A01 T03370088  RH  022%=      5-min Rain = 0
KMNS 142300Z 15005KT 33/09 A3013 RMK A01 T03330088  RH  023%=      5-min Rain = 0
KMNS 142305Z 15004KT 33/09 A3013 RMK A01 T03330087  RH  023%=      5-min Rain = 0
KMNS 142310Z 13005KT 34/09 A3013 RMK A01 T03350087  RH  022%=      5-min Rain = 0
KMNS 142315Z 14005KT 33/09 A3013 RMK A01 T03330086  RH  023%=      5-min Rain = 0
KMNS 142320Z 15006KT 34/09 A3013 RMK A01 T03370087  RH  022%=      5-min Rain = 0
KMNS 142325Z 15006KT 34/09 A3012 RMK A01 T03390086  RH  022%=      5-min Rain = 0
KMNS 142330Z 14006KT 34/09 A3012 RMK A01 T03360085  RH  022%=      5-min Rain = 0
KMNS 142335Z 11006KT 34/08 A3012 RMK A01 T03360084  RH  022%=      5-min Rain = 0
KMNS 142340Z 08005KT 33/09 A3012 RMK A01 T03340086  RH  022%=      5-min Rain = 0
KMNS 142345Z 10007KT 33/09 A3012 RMK A01 T03340086  RH  022%=      5-min Rain = 0
KMNS 142350Z 12005KT 33/09 A3012 RMK A01 T03340085  RH  022%=      5-min Rain = 0
KMNS 142355Z 14005KT 34/09 A3012 RMK A01 T03350085  RH  022%=      5-min Rain = 0
KMNS 150000Z 12006KT 33/09 A3012 RMK A01 T03320087  RH  023%=      5-min Rain = 0
KMNS 150005Z 12006KT 33/09 A3012 RMK A01 T03320088  RH  023%=      5-min Rain = 0
KMNS 150010Z 12006KT 33/09 A3012 RMK A01 T03310089  RH  023%=      5-min Rain = 0
KMNS 150015Z 12006KT 33/09 A3012 RMK A01 T03320088  RH  023%=      5-min Rain = 0
KMNS 150020Z 12006KT 33/09 A3012 RMK A01 T03280087  RH  023%=      5-min Rain = 0
KMNS 150025Z 10005KT 33/09 A3012 RMK A01 T03280087  RH  023%=      5-min Rain = 0
KMNS 150030Z 11007KT 33/09 A3012 RMK A01 T03270093  RH  024%=      5-min Rain = 0
KMNS 150035Z 10006KT 33/09 A3012 RMK A01 T03250093  RH  025%=      5-min Rain = 0
KMNS 150040Z 11004KT 32/09 A3013 RMK A01 T03240094  RH  025%=      5-min Rain = 0
KMNS 150045Z 12004KT 32/10 A3013 RMK A01 T03240095  RH  025%=      5-min Rain = 0
KMNS 150050Z 13005KT 32/10 A3013 RMK A01 T03200100  RH  027%=      5-min Rain = 0
KMNS 150055Z 13005KT 32/10 A3013 RMK A01 T03160104  RH  028%=      5-min Rain = 0
KMNS 150100Z 12005KT 31/11 A3013 RMK A01 T03120109  RH  030%=      5-min Rain = 0
KMNS 150105Z 12005KT 31/11 A3013 RMK A01 T03070112  RH  031%=      5-min Rain = 0
KMNS 150110Z 11004KT 30/11 A3013 RMK A01 T03020112  RH  032%=      5-min Rain = 0
KMNS 150115Z 12004KT 30/11 A3013 RMK A01 T02990109  RH  032%=      5-min Rain = 0
KMNS 150120Z 12004KT 30/11 A3014 RMK A01 T02970110  RH  033%=      5-min Rain = 0
KMNS 150125Z 12005KT 29/11 A3014 RMK A01 T02940114  RH  034%=      5-min Rain = 0
KMNS 150130Z 12005KT 29/12 A3014 RMK A01 T02910120  RH  036%=      5-min Rain = 0
KMNS 150135Z 12005KT 29/12 A3014 RMK A01 T02870121  RH  037%=      5-min Rain = 0
KMNS 150140Z 12005KT 29/12 A3014 RMK A01 T02850123  RH  038%=      5-min Rain = 0
KMNS 150145Z 12004KT 29/12 A3014 RMK A01 T02850122  RH  038%=      5-min Rain = 0
KMNS 150150Z 11005KT 28/12 A3015 RMK A01 T02830117  RH  037%=      5-min Rain = 0
KMNS 150155Z 11005KT 28/12 A3015 RMK A01 T02790115  RH  037%=      5-min Rain = 0
KMNS 150200Z 11005KT 28/12 A3015 RMK A01 T02760120  RH  039%=      5-min Rain = 0
KMNS 150205Z 09005KT 27/12 A3016 RMK A01 T02740124  RH  041%=      5-min Rain = 0
KMNS 150210Z 08005KT 27/13 A3016 RMK A01 T02680127  RH  043%=      5-min Rain = 0
KMNS 150215Z 09005KT 27/13 A3016 RMK A01 T02660125  RH  043%=      5-min Rain = 0
KMNS 150220Z 09005KT 27/12 A3016 RMK A01 T02660120  RH  042%=      5-min Rain = 0
KMNS 150225Z 10005KT 27/12 A3016 RMK A01 T02660118  RH  041%=      5-min Rain = 0
KMNS 150230Z 10005KT 27/12 A3016 RMK A01 T02670118  RH  041%=      5-min Rain = 0
KMNS 150235Z 11005KT 27/12 A3016 RMK A01 T02650117  RH  041%=      5-min Rain = 0
KMNS 150240Z 11005KT 26/12 A3016 RMK A01 T02610117  RH  042%=      5-min Rain = 0
KMNS 150245Z 12004KT 26/12 A3016 RMK A01 T02590118  RH  043%=      5-min Rain = 0
KMNS 150250Z 14005KT 26/13 A3017 RMK A01 T02590128  RH  046%=      5-min Rain = 0
KMNS 150255Z 13005KT 26/13 A3016 RMK A01 T02580127  RH  046%=      5-min Rain = 0
KMNS 150300Z 13006KT 26/12 A3017 RMK A01 T02600122  RH  044%=      5-min Rain = 0
KMNS 150305Z 13005KT 26/12 A3017 RMK A01 T02600120  RH  043%=      5-min Rain = 0
KMNS 150310Z 13006KT 26/12 A3017 RMK A01 T02560120  RH  044%=      5-min Rain = 0
KMNS 150315Z 13006KT 25/12 A3017 RMK A01 T02540119  RH  045%=      5-min Rain = 0
KMNS 150320Z 12005KT 25/12 A3017 RMK A01 T02520121  RH  046%=      5-min Rain = 0
KMNS 150325Z 11004KT 25/12 A3018 RMK A01 T02490122  RH  047%=      5-min Rain = 0
KMNS 150330Z 11005KT 25/12 A3018 RMK A01 T02480118  RH  046%=      5-min Rain = 0
KMNS 150335Z 11004KT 25/12 A3018 RMK A01 T02480117  RH  046%=      5-min Rain = 0
KMNS 150340Z 12004KT 25/12 A3019 RMK A01 T02490117  RH  045%=      5-min Rain = 0
KMNS 150345Z 12004KT 25/12 A3019 RMK A01 T02490119  RH  046%=      5-min Rain = 0
KMNS 150350Z 11004KT 25/12 A3019 RMK A01 T02470120  RH  047%=      5-min Rain = 0
KMNS 150355Z 11004KT 25/12 A3019 RMK A01 T02460121  RH  047%=      5-min Rain = 0
KMNS 150400Z 11005KT 24/12 A3019 RMK A01 T02440122  RH  048%=      5-min Rain = 0
KMNS 150405Z 10005KT 24/12 A3019 RMK A01 T02440119  RH  047%=      5-min Rain = 0
KMNS 150410Z 10004KT 25/12 A3019 RMK A01 T02470117  RH  046%=      5-min Rain = 0
KMNS 150415Z 10004KT 25/12 A3019 RMK A01 T02480116  RH  045%=      5-min Rain = 0
KMNS 150420Z 10004KT 25/12 A3019 RMK A01 T02490115  RH  045%=      5-min Rain = 0
KMNS 150425Z 11004KT 25/12 A3019 RMK A01 T02490115  RH  045%=      5-min Rain = 0
KMNS 150430Z 11004KT 25/12 A3019 RMK A01 T02490115  RH  045%=      5-min Rain = 0
KMNS 150435Z 12004KT 25/12 A3019 RMK A01 T02480117  RH  045%=      5-min Rain = 0
KMNS 150440Z 12004KT 25/12 A3019 RMK A01 T02490120  RH  046%=      5-min Rain = 0
KMNS 150445Z 11004KT 25/12 A3019 RMK A01 T02480122  RH  047%=      5-min Rain = 0
KMNS 150450Z 11004KT 25/12 A3019 RMK A01 T02460123  RH  048%=      5-min Rain = 0
KMNS 150455Z 11002KT 25/12 A3019 RMK A01 T02460122  RH  048%=      5-min Rain = 0

Page generated in 0.0099 seconds.